Time;durP1;ratioP1;P1;durP2;ratioP2;P2;SDS_P1;SDS_P2;PMS_P1;PMS_P2;Temp;Humidity;BMP_temperature;BMP_pressure;BME280_temperature;BME280_humidity;BME280_pressure;Samples;Min_cycle;Max_cycle;Signal;HPM_P1;HPM_P2
2023/03/05 00:01:15;;;;;;;5.82;1.58;;;;;;;;;;4991930;28;20033;-93
2023/03/05 00:03:41;;;;;;;4.60;1.85;;;;;;;;;;4997896;28;20029;-86
2023/03/05 00:06:07;;;;;;;3.30;1.70;;;;;;;;;;4994819;28;20026;-86
2023/03/05 00:08:32;;;;;;;2.80;1.60;;;;;;;;;;4977291;28;20109;-87
2023/03/05 00:11:02;;;;;;;3.75;1.63;;;;;;;;;;4994975;28;20034;-90
2023/03/05 00:13:27;;;;;;;3.33;1.80;;;;;;;;;;4994576;28;20393;-89
2023/03/05 00:15:53;;;;;;;2.92;1.50;;;;;;;;;;4979114;28;20026;-88
2023/03/05 00:18:19;;;;;;;2.63;1.50;;;;;;;;;;4993660;28;20133;-89
2023/03/05 00:20:45;;;;;;;2.53;1.38;;;;;;;;;;4977437;28;20037;-89
2023/03/05 00:23:10;;;;;;;5.18;1.70;;;;;;;;;;4994595;28;20030;-90
2023/03/05 00:25:36;;;;;;;3.30;1.50;;;;;;;;;;4976840;28;20081;-88
2023/03/05 00:28:03;;;;;;;3.97;1.63;;;;;;;;;;4977482;28;20030;-89
2023/03/05 00:30:29;;;;;;;2.08;1.30;;;;;;;;;;4960587;28;20036;-91
2023/03/05 00:32:55;;;;;;;2.38;1.20;;;;;;;;;;4976989;28;20022;-91
2023/03/05 00:35:20;;;;;;;4.38;1.33;;;;;;;;;;4976676;28;20030;-91
2023/03/05 00:37:45;;;;;;;3.92;1.73;;;;;;;;;;4992926;28;20499;-91
2023/03/05 00:40:11;;;;;;;2.80;1.30;;;;;;;;;;4994051;28;20030;-90
2023/03/05 00:42:37;;;;;;;4.55;1.33;;;;;;;;;;4976525;28;20469;-91
2023/03/05 00:45:07;;;;;;;2.88;1.40;;;;;;;;;;4976289;28;20156;-91
2023/03/05 00:47:32;;;;;;;3.63;1.40;;;;;;;;;;4992185;28;20117;-90
2023/03/05 00:49:58;;;;;;;2.38;1.65;;;;;;;;;;4976919;28;20078;-90
2023/03/05 00:52:23;;;;;;;3.35;1.55;;;;;;;;;;4993573;28;20157;-91
2023/03/05 00:54:48;;;;;;;4.55;1.48;;;;;;;;;;4976614;28;20450;-89
2023/03/05 00:57:14;;;;;;;3.55;1.65;;;;;;;;;;4993335;28;20026;-90
2023/03/05 00:59:39;;;;;;;1.58;1.10;;;;;;;;;;4976763;28;20525;-90
2023/03/05 01:02:05;;;;;;;2.70;1.40;;;;;;;;;;4976527;28;20065;-90
2023/03/05 01:04:30;;;;;;;3.88;1.60;;;;;;;;;;4992646;28;20029;-90
2023/03/05 01:06:55;;;;;;;1.75;1.20;;;;;;;;;;4976712;28;20038;-90
2023/03/05 01:09:24;;;;;;;3.60;1.60;;;;;;;;;;4980366;28;20038;-91
2023/03/05 01:11:50;;;;;;;2.38;1.20;;;;;;;;;;4998154;28;20080;-91
2023/03/05 01:14:15;;;;;;;4.60;1.60;;;;;;;;;;4980489;28;20117;-90
2023/03/05 01:16:40;;;;;;;2.42;1.10;;;;;;;;;;4998338;28;20477;-89
2023/03/05 01:19:06;;;;;;;2.60;1.50;;;;;;;;;;4980642;28;20096;-90
2023/03/05 01:21:31;;;;;;;2.92;1.25;;;;;;;;;;4979996;28;20073;-89
2023/03/05 01:23:57;;;;;;;2.75;1.30;;;;;;;;;;4980267;28;20034;-89
2023/03/05 01:26:23;;;;;;;1.63;1.20;;;;;;;;;;4980311;28;20037;-89
2023/03/05 01:28:48;;;;;;;2.42;1.20;;;;;;;;;;4997838;28;20030;-89
2023/03/05 01:31:13;;;;;;;2.67;1.40;;;;;;;;;;4979990;28;20030;-90
2023/03/05 01:33:39;;;;;;;2.13;1.50;;;;;;;;;;4997786;28;20031;-90
2023/03/05 01:36:12;;;;;;;3.78;1.50;;;;;;;;;;4997305;28;20053;-90
2023/03/05 01:38:37;;;;;;;1.98;1.20;;;;;;;;;;4980172;28;20049;-90
2023/03/05 01:41:03;;;;;;;2.45;1.15;;;;;;;;;;4995938;28;20031;-90
2023/03/05 01:43:29;;;;;;;1.83;1.13;;;;;;;;;;4980431;28;20058;-90
2023/03/05 01:46:16;;;;;;;1.30;1.08;;;;;;;;;;4997834;28;20026;-90
2023/03/05 01:48:45;;;;;;;4.22;1.42;;;;;;;;;;4996369;28;20093;-90
2023/03/05 01:51:11;;;;;;;2.90;1.30;;;;;;;;;;4980258;28;20058;-90
2023/03/05 01:53:36;;;;;;;3.55;1.38;;;;;;;;;;4980484;28;20101;-90
2023/03/05 01:56:02;;;;;;;2.22;1.02;;;;;;;;;;4981061;28;20129;-90
2023/03/05 01:58:27;;;;;;;1.40;1.10;;;;;;;;;;4980604;28;20022;-90
2023/03/05 02:00:53;;;;;;;2.60;1.17;;;;;;;;;;4996021;28;20091;-89
2023/03/05 02:03:19;;;;;;;2.30;1.23;;;;;;;;;;4979491;28;20029;-89
2023/03/05 02:05:45;;;;;;;3.95;1.40;;;;;;;;;;4963206;28;20474;-89
2023/03/05 02:08:16;;;;;;;2.08;1.15;;;;;;;;;;4996617;28;20440;-89
2023/03/05 02:10:45;;;;;;;2.03;1.17;;;;;;;;;;4962860;28;20026;-89
2023/03/05 02:13:17;;;;;;;3.13;1.02;;;;;;;;;;4979174;28;20026;-89
2023/03/05 02:15:43;;;;;;;3.42;1.55;;;;;;;;;;4978994;28;20034;-90
2023/03/05 02:18:09;;;;;;;2.70;1.30;;;;;;;;;;4995308;28;20033;-89
2023/03/05 02:20:53;;;;;;;3.00;1.27;;;;;;;;;;4977689;28;20057;-89
2023/03/05 02:23:19;;;;;;;1.50;1.00;;;;;;;;;;4979153;28;20022;-90
2023/03/05 02:25:45;;;;;;;1.95;1.00;;;;;;;;;;4979022;28;20199;-88
2023/03/05 02:28:12;;;;;;;2.28;1.35;;;;;;;;;;4996633;28;20118;-88
2023/03/05 02:30:37;;;;;;;1.48;1.10;;;;;;;;;;4995105;28;20102;-88
2023/03/05 02:33:04;;;;;;;3.50;1.23;;;;;;;;;;4980860;28;20093;-88
2023/03/05 02:35:29;;;;;;;2.22;1.23;;;;;;;;;;4979108;28;20019;-89
2023/03/05 02:37:55;;;;;;;2.05;1.23;;;;;;;;;;4979327;28;20089;-89
2023/03/05 02:40:20;;;;;;;2.22;1.10;;;;;;;;;;4980301;28;20040;-88
2023/03/05 02:42:45;;;;;;;2.00;1.20;;;;;;;;;;4981840;28;20037;-89
2023/03/05 02:45:12;;;;;;;2.30;1.20;;;;;;;;;;4981556;28;20030;-89
2023/03/05 02:47:38;;;;;;;2.47;1.13;;;;;;;;;;4999996;28;20037;-89
2023/03/05 02:50:05;;;;;;;1.60;1.02;;;;;;;;;;4987342;28;20022;-89
2023/03/05 02:52:30;;;;;;;2.38;1.25;;;;;;;;;;4970039;28;20076;-89
2023/03/05 02:54:56;;;;;;;2.15;1.27;;;;;;;;;;5003848;28;20496;-89
2023/03/05 02:57:21;;;;;;;2.03;1.20;;;;;;;;;;4982635;28;20034;-88
2023/03/05 02:59:47;;;;;;;1.90;1.17;;;;;;;;;;4985467;28;20034;-88
2023/03/05 03:02:12;;;;;;;2.28;1.25;;;;;;;;;;4985706;28;20107;-89
2023/03/05 03:04:38;;;;;;;5.45;1.48;;;;;;;;;;4986123;28;20124;-89
2023/03/05 03:07:03;;;;;;;2.17;1.30;;;;;;;;;;4985830;28;20076;-89
2023/03/05 03:09:29;;;;;;;2.60;1.13;;;;;;;;;;4968910;28;20035;-89
2023/03/05 03:11:54;;;;;;;3.88;1.20;;;;;;;;;;4980112;28;20078;-89
2023/03/05 03:14:20;;;;;;;3.22;1.45;;;;;;;;;;4963874;28;20030;-89
2023/03/05 03:16:46;;;;;;;3.20;1.20;;;;;;;;;;4978331;28;20401;-90
2023/03/05 03:19:11;;;;;;;1.98;1.17;;;;;;;;;;4995677;28;20052;-88
2023/03/05 03:21:37;;;;;;;2.75;1.42;;;;;;;;;;4977974;28;20037;-88
2023/03/05 03:24:03;;;;;;;1.73;1.08;;;;;;;;;;4977834;28;20398;-88
2023/03/05 03:26:29;;;;;;;1.85;1.20;;;;;;;;;;4977575;28;20038;-88
2023/03/05 03:28:54;;;;;;;1.70;1.00;;;;;;;;;;4977999;28;20481;-88
2023/03/05 03:31:20;;;;;;;2.13;1.10;;;;;;;;;;4994806;28;20034;-88
2023/03/05 03:33:45;;;;;;;2.47;1.20;;;;;;;;;;4994381;28;20113;-89
2023/03/05 03:36:11;;;;;;;2.13;1.40;;;;;;;;;;4993832;28;20477;-89
2023/03/05 03:38:37;;;;;;;2.47;1.08;;;;;;;;;;4993955;28;20057;-89
2023/03/05 03:41:04;;;;;;;3.55;1.38;;;;;;;;;;4977922;28;20093;-90
2023/03/05 03:43:30;;;;;;;3.70;1.15;;;;;;;;;;4961534;28;20033;-90
2023/03/05 03:45:55;;;;;;;2.72;1.30;;;;;;;;;;4994067;28;20125;-90
2023/03/05 03:48:21;;;;;;;3.33;1.63;;;;;;;;;;4978114;28;20046;-90
2023/03/05 03:50:46;;;;;;;3.75;1.02;;;;;;;;;;4978977;28;20026;-90
2023/03/05 03:53:13;;;;;;;2.70;1.33;;;;;;;;;;4977966;28;20114;-90
2023/03/05 03:55:40;;;;;;;1.48;1.00;;;;;;;;;;4978204;28;20466;-90
2023/03/05 03:58:06;;;;;;;2.70;1.10;;;;;;;;;;4977706;28;20038;-91
2023/03/05 04:00:31;;;;;;;2.10;0.93;;;;;;;;;;4977187;28;20026;-90
2023/03/05 04:02:56;;;;;;;2.35;1.30;;;;;;;;;;4983271;28;20149;-90
2023/03/05 04:05:22;;;;;;;3.13;1.40;;;;;;;;;;4985162;28;20034;-90
2023/03/05 04:07:47;;;;;;;3.97;1.33;;;;;;;;;;4983385;28;20034;-90
2023/03/05 04:10:13;;;;;;;3.35;1.30;;;;;;;;;;4999048;28;20038;-91
2023/03/05 04:12:41;;;;;;;2.53;1.27;;;;;;;;;;4978479;28;20065;-90
2023/03/05 04:15:07;;;;;;;1.50;0.98;;;;;;;;;;4993826;28;20034;-90
2023/03/05 04:17:33;;;;;;;3.53;1.10;;;;;;;;;;4977125;28;20420;-90
2023/03/05 04:19:58;;;;;;;2.30;1.20;;;;;;;;;;4994426;28;20034;-90
2023/03/05 04:22:24;;;;;;;2.25;1.20;;;;;;;;;;4977516;28;20039;-90
2023/03/05 04:24:49;;;;;;;2.45;1.00;;;;;;;;;;4977923;28;20037;-89
2023/03/05 04:27:15;;;;;;;3.53;1.20;;;;;;;;;;4994464;28;20113;-89
2023/03/05 04:29:40;;;;;;;3.00;1.20;;;;;;;;;;4977230;28;20030;-89
2023/03/05 04:32:06;;;;;;;2.10;1.15;;;;;;;;;;4993890;28;20038;-89
2023/03/05 04:34:32;;;;;;;2.13;1.10;;;;;;;;;;4976938;28;20030;-91
2023/03/05 04:36:57;;;;;;;2.13;1.10;;;;;;;;;;4994633;28;20473;-89
2023/03/05 04:39:23;;;;;;;1.33;0.98;;;;;;;;;;4960457;28;20035;-89
2023/03/05 04:41:48;;;;;;;1.92;1.10;;;;;;;;;;4976399;28;20034;-89
2023/03/05 04:44:14;;;;;;;1.92;1.00;;;;;;;;;;4976513;28;20512;-89
2023/03/05 04:46:39;;;;;;;2.63;1.02;;;;;;;;;;4977593;28;20528;-90
2023/03/05 04:49:05;;;;;;;1.65;0.82;;;;;;;;;;4977572;28;20038;-90
2023/03/05 04:51:31;;;;;;;2.33;1.10;;;;;;;;;;4995331;28;20089;-91
2023/03/05 04:53:56;;;;;;;2.30;1.10;;;;;;;;;;4946604;28;20565;-91
2023/03/05 04:56:21;;;;;;;1.63;1.00;;;;;;;;;;4977936;28;20057;-90
2023/03/05 04:58:47;;;;;;;2.03;1.08;;;;;;;;;;4993874;28;20026;-90
2023/03/05 05:01:12;;;;;;;2.58;1.05;;;;;;;;;;4977412;28;20026;-91
2023/03/05 05:03:38;;;;;;;1.23;0.80;;;;;;;;;;4977451;28;20034;-91
2023/03/05 05:06:03;;;;;;;2.70;1.05;;;;;;;;;;4977077;28;20041;-90
2023/03/05 05:08:29;;;;;;;1.80;0.90;;;;;;;;;;4996524;28;20030;-90
2023/03/05 05:10:59;;;;;;;1.85;0.80;;;;;;;;;;4976884;28;20080;-90
2023/03/05 05:13:25;;;;;;;2.58;1.00;;;;;;;;;;4945045;28;20108;-91
2023/03/05 05:15:50;;;;;;;1.85;1.00;;;;;;;;;;4976740;28;20062;-89
2023/03/05 05:18:16;;;;;;;2.08;0.90;;;;;;;;;;4994350;28;20396;-90
2023/03/05 05:20:41;;;;;;;1.90;0.80;;;;;;;;;;4964733;28;20449;-90
2023/03/05 05:23:07;;;;;;;1.45;0.82;;;;;;;;;;4980540;28;20049;-90
2023/03/05 05:25:32;;;;;;;2.42;0.98;;;;;;;;;;4993711;28;20054;-90
2023/03/05 05:27:57;;;;;;;2.05;1.00;;;;;;;;;;4976611;28;20054;-90
2023/03/05 05:30:23;;;;;;;1.73;1.02;;;;;;;;;;4976937;28;20034;-90
2023/03/05 05:32:48;;;;;;;1.23;0.82;;;;;;;;;;4993929;28;20046;-89
2023/03/05 05:35:14;;;;;;;2.00;1.00;;;;;;;;;;4992710;28;20069;-90
2023/03/05 05:37:39;;;;;;;2.45;1.10;;;;;;;;;;4961019;28;20034;-90
2023/03/05 05:40:07;;;;;;;2.28;1.10;;;;;;;;;;4976797;28;20034;-90
2023/03/05 05:42:32;;;;;;;1.20;0.90;;;;;;;;;;4960673;28;20034;-90
2023/03/05 05:44:58;;;;;;;1.90;0.90;;;;;;;;;;4976607;28;20027;-90
2023/03/05 05:47:24;;;;;;;3.28;1.00;;;;;;;;;;4976626;28;20393;-90
2023/03/05 05:49:49;;;;;;;2.35;1.02;;;;;;;;;;4976497;28;20396;-91
2023/03/05 05:52:15;;;;;;;2.83;0.95;;;;;;;;;;4993689;28;20050;-91
2023/03/05 05:54:40;;;;;;;2.22;1.10;;;;;;;;;;4978862;28;20438;-90
2023/03/05 05:57:06;;;;;;;1.27;0.88;;;;;;;;;;4980253;28;20034;-91
2023/03/05 05:59:32;;;;;;;1.52;0.80;;;;;;;;;;4996460;28;20030;-90
2023/03/05 06:01:57;;;;;;;1.95;0.88;;;;;;;;;;4981152;28;20030;-91
2023/03/05 06:04:22;;;;;;;2.33;0.82;;;;;;;;;;4980787;28;20490;-92
2023/03/05 06:06:48;;;;;;;2.72;0.90;;;;;;;;;;4980591;28;20086;-91
2023/03/05 06:09:14;;;;;;;2.10;0.70;;;;;;;;;;4980345;28;20026;-92
2023/03/05 06:11:39;;;;;;;1.02;0.75;;;;;;;;;;4996185;28;20049;-92
2023/03/05 06:14:06;;;;;;;2.42;1.27;;;;;;;;;;4980114;28;20030;-91
2023/03/05 06:16:31;;;;;;;1.45;0.70;;;;;;;;;;4996342;28;20084;-88
2023/03/05 06:18:57;;;;;;;1.48;0.80;;;;;;;;;;4980363;28;20030;-90
2023/03/05 06:21:23;;;;;;;1.25;0.80;;;;;;;;;;4964485;28;20121;-91
2023/03/05 06:23:49;;;;;;;1.83;0.85;;;;;;;;;;4979879;28;20030;-92
2023/03/05 06:26:18;;;;;;;2.00;0.80;;;;;;;;;;4980120;28;20057;-92
2023/03/05 06:28:43;;;;;;;6.68;0.88;;;;;;;;;;4980823;28;20032;-93
2023/03/05 06:31:11;;;;;;;2.30;0.90;;;;;;;;;;4998074;28;20034;-91
2023/03/05 06:33:37;;;;;;;1.33;0.82;;;;;;;;;;4979924;28;20058;-91
2023/03/05 06:36:07;;;;;;;1.77;1.02;;;;;;;;;;4979712;28;20058;-91
2023/03/05 06:38:34;;;;;;;1.98;0.82;;;;;;;;;;4980008;28;20030;-91
2023/03/05 06:41:04;;;;;;;2.42;1.10;;;;;;;;;;4979602;28;20033;-91
2023/03/05 06:43:32;;;;;;;2.55;0.90;;;;;;;;;;4979900;28;20054;-90
2023/03/05 06:46:06;;;;;;;1.38;0.82;;;;;;;;;;4979623;28;20073;-90
2023/03/05 06:48:31;;;;;;;;;;;;;;;;;;4998144;28;20113;-91
2023/03/05 06:50:56;;;;;;;0.77;0.68;;;;;;;;;;4979636;28;19952;-90
2023/03/05 06:53:23;;;;;;;2.20;0.98;;;;;;;;;;4979909;28;20095;-90
2023/03/05 06:55:49;;;;;;;0.65;0.52;;;;;;;;;;4979193;28;20034;-90
2023/03/05 06:58:14;;;;;;;2.88;1.20;;;;;;;;;;4980493;28;20056;-91
2023/03/05 07:00:40;;;;;;;1.27;0.77;;;;;;;;;;4947507;28;20056;-90
2023/03/05 07:03:05;;;;;;;2.53;0.70;;;;;;;;;;4996837;28;20088;-90
2023/03/05 07:05:31;;;;;;;2.13;0.80;;;;;;;;;;4995987;28;20119;-90
2023/03/05 07:07:56;;;;;;;1.20;0.70;;;;;;;;;;4979158;28;20049;-90
2023/03/05 07:10:21;;;;;;;1.77;1.00;;;;;;;;;;4979430;28;20023;-90
2023/03/05 07:12:47;;;;;;;2.20;0.90;;;;;;;;;;4996344;28;20036;-90
2023/03/05 07:15:12;;;;;;;1.58;0.75;;;;;;;;;;4996977;28;20473;-90
2023/03/05 07:17:38;;;;;;;1.02;0.70;;;;;;;;;;4978842;28;20401;-90
2023/03/05 07:20:03;;;;;;;1.13;0.80;;;;;;;;;;4994514;28;20037;-89
2023/03/05 07:22:29;;;;;;;0.60;0.60;;;;;;;;;;4978966;28;20034;-89
2023/03/05 07:24:54;;;;;;;2.08;0.80;;;;;;;;;;4996002;28;20034;-89
2023/03/05 07:27:22;;;;;;;1.33;0.80;;;;;;;;;;4978565;28;20045;-90
2023/03/05 07:29:47;;;;;;;1.80;0.80;;;;;;;;;;4962705;28;20125;-90
2023/03/05 07:32:12;;;;;;;1.02;0.60;;;;;;;;;;4996040;28;20109;-90
2023/03/05 07:34:38;;;;;;;0.98;0.65;;;;;;;;;;4997057;28;20030;-90
2023/03/05 07:37:03;;;;;;;1.30;0.63;;;;;;;;;;4978322;28;20422;-90
2023/03/05 07:39:29;;;;;;;1.30;0.80;;;;;;;;;;4996574;28;20117;-91
2023/03/05 07:41:54;;;;;;;0.95;0.80;;;;;;;;;;4978525;28;20087;-90
2023/03/05 07:44:20;;;;;;;2.25;0.80;;;;;;;;;;4979238;28;20042;-92
2023/03/05 07:46:45;;;;;;;1.05;0.65;;;;;;;;;;4996378;28;20042;-91
2023/03/05 07:49:10;;;;;;;1.50;0.70;;;;;;;;;;4996756;28;20532;-91
2023/03/05 07:51:36;;;;;;;2.10;0.85;;;;;;;;;;4979275;28;20054;-91
2023/03/05 07:54:01;;;;;;;1.50;0.70;;;;;;;;;;4978694;28;20042;-91
2023/03/05 07:56:34;;;;;;;2.90;0.77;;;;;;;;;;4978537;28;20061;-91
2023/03/05 07:59:01;;;;;;;1.20;0.80;;;;;;;;;;4978461;28;20030;-91
2023/03/05 08:01:27;;;;;;;0.60;0.60;;;;;;;;;;4978124;28;20477;-90
2023/03/05 08:03:53;;;;;;;1.08;0.80;;;;;;;;;;4978168;28;20054;-90
2023/03/05 08:06:18;;;;;;;0.90;0.60;;;;;;;;;;4979091;28;20053;-90
2023/03/05 08:08:43;;;;;;;0.82;0.70;;;;;;;;;;4994492;28;20035;-90
2023/03/05 08:11:11;;;;;;;1.42;0.80;;;;;;;;;;4962190;28;20117;-91
2023/03/05 08:13:37;;;;;;;1.48;0.70;;;;;;;;;;4978548;28;20026;-91
2023/03/05 08:16:13;;;;;;;0.75;0.75;;;;;;;;;;4979072;28;20027;-91
2023/03/05 08:18:38;;;;;;;2.50;0.50;;;;;;;;;;4961560;28;20038;-91
2023/03/05 08:21:04;;;;;;;0.95;0.70;;;;;;;;;;4979045;28;20030;-91
2023/03/05 08:23:30;;;;;;;0.60;0.57;;;;;;;;;;4978493;28;20094;-91
2023/03/05 08:25:55;;;;;;;1.35;0.57;;;;;;;;;;4977560;28;20030;-90
2023/03/05 08:28:21;;;;;;;1.27;0.88;;;;;;;;;;4995034;28;20092;-90
2023/03/05 08:30:47;;;;;;;1.50;0.65;;;;;;;;;;4994935;28;20073;-90
2023/03/05 08:33:14;;;;;;;0.85;0.75;;;;;;;;;;4977347;28;20448;-90
2023/03/05 08:35:39;;;;;;;1.33;1.00;;;;;;;;;;4977514;28;20105;-90
2023/03/05 08:38:04;;;;;;;1.25;0.73;;;;;;;;;;4977861;28;20121;-91
2023/03/05 08:40:30;;;;;;;2.35;0.80;;;;;;;;;;4977477;28;20026;-90
2023/03/05 08:42:56;;;;;;;1.40;0.80;;;;;;;;;;4979486;28;20054;-90
2023/03/05 08:45:22;;;;;;;1.20;0.77;;;;;;;;;;4967039;28;20077;-90
2023/03/05 08:47:48;;;;;;;1.65;0.90;;;;;;;;;;4986848;28;20432;-90
2023/03/05 08:50:13;;;;;;;0.70;0.68;;;;;;;;;;4978730;28;20035;-90
2023/03/05 08:52:38;;;;;;;2.03;0.75;;;;;;;;;;4977239;28;20058;-89
2023/03/05 08:55:04;;;;;;;1.65;0.95;;;;;;;;;;4994671;28;20081;-89
2023/03/05 08:57:30;;;;;;;1.23;0.70;;;;;;;;;;4977325;28;20044;-90
2023/03/05 08:59:55;;;;;;;2.22;0.90;;;;;;;;;;4994649;28;20038;-89
2023/03/05 09:02:20;;;;;;;1.00;0.60;;;;;;;;;;4977280;28;20030;-88
2023/03/05 09:04:46;;;;;;;1.38;0.60;;;;;;;;;;4977254;28;20019;-89
2023/03/05 09:07:11;;;;;;;0.75;0.60;;;;;;;;;;4994506;28;20457;-89
2023/03/05 09:09:37;;;;;;;1.05;0.60;;;;;;;;;;4976995;28;20050;-89
2023/03/05 09:12:03;;;;;;;0.80;0.80;;;;;;;;;;4994298;28;20034;-88
2023/03/05 09:14:29;;;;;;;1.58;0.75;;;;;;;;;;4976678;28;20038;-89
2023/03/05 09:16:55;;;;;;;1.20;0.70;;;;;;;;;;4976631;28;20080;-89
2023/03/05 09:19:21;;;;;;;0.85;0.50;;;;;;;;;;4977318;28;20118;-90
2023/03/05 09:21:46;;;;;;;1.38;0.80;;;;;;;;;;4977937;28;20073;-91
2023/03/05 09:24:12;;;;;;;1.98;0.43;;;;;;;;;;4978097;28;20030;-91
2023/03/05 09:26:39;;;;;;;0.65;0.60;;;;;;;;;;4994650;28;20069;-91
2023/03/05 09:29:06;;;;;;;0.90;0.73;;;;;;;;;;4978993;28;20482;-91
2023/03/05 09:31:31;;;;;;;0.90;0.70;;;;;;;;;;4999139;28;20045;-90
2023/03/05 09:33:57;;;;;;;0.52;0.52;;;;;;;;;;4983999;28;20374;-91
2023/03/05 09:36:25;;;;;;;0.47;0.47;;;;;;;;;;4984994;28;20042;-92
2023/03/05 09:38:51;;;;;;;1.48;0.90;;;;;;;;;;4984934;28;20057;-91
2023/03/05 09:41:49;;;;;;;0.93;0.70;;;;;;;;;;4984449;28;20026;-91
2023/03/05 09:44:41;;;;;;;3.33;0.70;;;;;;;;;;5004403;28;20425;-92
2023/03/05 09:47:13;;;;;;;1.20;0.70;;;;;;;;;;5002753;28;20084;-91
2023/03/05 09:50:07;;;;;;;0.73;0.73;;;;;;;;;;5002433;28;20025;-90
2023/03/05 09:52:46;;;;;;;1.23;0.85;;;;;;;;;;5010405;28;20081;-91
2023/03/05 09:55:14;;;;;;;0.90;0.60;;;;;;;;;;4994827;28;20430;-91
2023/03/05 09:57:45;;;;;;;1.73;0.70;;;;;;;;;;4993807;28;20519;-91
2023/03/05 10:00:28;;;;;;;1.42;0.90;;;;;;;;;;5008633;28;20029;-89
2023/03/05 10:02:57;;;;;;;1.10;0.60;;;;;;;;;;4982345;28;20510;-89
2023/03/05 10:05:54;;;;;;;1.00;0.70;;;;;;;;;;4980962;28;20049;-89
2023/03/05 10:08:23;;;;;;;0.73;0.70;;;;;;;;;;4994943;28;20484;-89
2023/03/05 10:10:51;;;;;;;1.00;0.80;;;;;;;;;;4981970;28;20066;-89
2023/03/05 10:13:26;;;;;;;0.98;0.70;;;;;;;;;;4981830;28;20045;-91
2023/03/05 10:16:02;;;;;;;1.25;0.70;;;;;;;;;;4981663;28;20466;-90
2023/03/05 10:19:03;;;;;;;1.45;0.80;;;;;;;;;;4980438;28;20030;-90
2023/03/05 10:21:53;;;;;;;1.88;0.80;;;;;;;;;;4962528;28;20041;-90
2023/03/05 10:24:29;;;;;;;1.45;0.80;;;;;;;;;;4980662;28;20307;-88
2023/03/05 10:26:54;;;;;;;2.63;0.40;;;;;;;;;;4980439;28;20118;-86
2023/03/05 10:29:54;;;;;;;2.17;0.80;;;;;;;;;;4996405;28;20054;-87
2023/03/05 10:32:40;;;;;;;1.65;0.70;;;;;;;;;;4996591;28;20097;-87
2023/03/05 10:35:20;;;;;;;2.47;0.93;;;;;;;;;;4983027;28;20030;-88
2023/03/05 10:38:12;;;;;;;0.47;0.47;;;;;;;;;;4980574;28;20041;-84
2023/03/05 10:40:46;;;;;;;1.48;0.73;;;;;;;;;;4995664;28;20088;-84
2023/03/05 10:43:20;;;;;;;0.80;0.80;;;;;;;;;;4979326;28;20087;-84
2023/03/05 10:45:49;;;;;;;;;;;;;;;;;;4979953;28;20046;-84
2023/03/05 10:48:27;;;;;;;0.63;0.50;;;;;;;;;;4997071;28;19925;-84
2023/03/05 10:50:59;;;;;;;1.33;0.80;;;;;;;;;;4995953;28;20076;-84
2023/03/05 10:53:32;;;;;;;1.42;0.70;;;;;;;;;;4981699;28;20046;-87
2023/03/05 10:56:03;;;;;;;1.65;0.80;;;;;;;;;;4985565;28;20054;-86
2023/03/05 10:58:28;;;;;;;1.52;0.73;;;;;;;;;;4981747;28;20117;-86
2023/03/05 11:01:17;;;;;;;0.88;0.80;;;;;;;;;;4999431;28;20112;-87
2023/03/05 11:03:55;;;;;;;0.77;0.60;;;;;;;;;;4970756;28;20049;-86
2023/03/05 11:06:34;;;;;;;1.08;0.80;;;;;;;;;;4984574;28;20053;-92
2023/03/05 11:09:28;;;;;;;0.88;0.55;;;;;;;;;;4978605;28;20037;-87
2023/03/05 11:12:19;;;;;;;1.45;0.70;;;;;;;;;;4978967;28;20026;-90
2023/03/05 11:14:46;;;;;;;1.88;0.80;;;;;;;;;;4985178;28;20023;-90
2023/03/05 11:17:26;;;;;;;0.73;0.57;;;;;;;;;;4979924;28;20026;-90
2023/03/05 11:19:52;;;;;;;1.02;0.88;;;;;;;;;;4979775;28;20038;-92
2023/03/05 11:22:22;;;;;;;6.68;0.73;;;;;;;;;;4979992;28;20046;-91
2023/03/05 11:25:10;;;;;;;1.95;0.60;;;;;;;;;;4979268;28;20049;-90
2023/03/05 11:27:48;;;;;;;2.13;0.70;;;;;;;;;;4996121;28;20445;-86
2023/03/05 11:30:25;;;;;;;0.85;0.63;;;;;;;;;;4965211;28;20488;-89
2023/03/05 11:33:23;;;;;;;1.13;0.68;;;;;;;;;;4980408;28;20390;-89
2023/03/05 11:35:52;;;;;;;8.00;1.20;;;;;;;;;;4996376;28;20023;-90
2023/03/05 11:38:22;;;;;;;3.92;0.90;;;;;;;;;;4998668;28;20097;-89
2023/03/05 11:40:48;;;;;;;1.38;0.65;;;;;;;;;;4979336;28;20030;-87
2023/03/05 11:43:17;;;;;;;2.03;0.90;;;;;;;;;;4978718;28;20046;-87
2023/03/05 11:45:43;;;;;;;1.23;0.90;;;;;;;;;;4980611;28;20018;-86
2023/03/05 11:48:14;;;;;;;3.20;1.13;;;;;;;;;;4977822;28;20034;-87
2023/03/05 11:50:40;;;;;;;2.45;0.98;;;;;;;;;;4995389;28;20026;-86
2023/03/05 11:53:21;;;;;;;1.42;0.90;;;;;;;;;;4977498;28;20051;-84
2023/03/05 11:55:50;;;;;;;2.30;1.02;;;;;;;;;;4962013;28;20037;-86
2023/03/05 11:58:35;;;;;;;2.03;0.95;;;;;;;;;;4994080;28;20405;-87
2023/03/05 12:01:02;;;;;;;2.00;1.10;;;;;;;;;;4978560;28;20477;-88
2023/03/05 12:03:34;;;;;;;3.10;1.13;;;;;;;;;;4994263;28;20058;-88
2023/03/05 12:06:35;;;;;;;2.53;1.35;;;;;;;;;;4978454;28;20437;-88
2023/03/05 12:09:08;;;;;;;2.95;0.98;;;;;;;;;;4985246;28;20034;-90
2023/03/05 12:11:34;;;;;;;3.33;1.10;;;;;;;;;;4978706;28;20022;-91
2023/03/05 12:14:33;;;;;;;3.47;1.40;;;;;;;;;;4962440;28;20085;-83
2023/03/05 12:17:31;;;;;;;2.22;0.98;;;;;;;;;;4994953;28;20485;-86
2023/03/05 12:20:22;;;;;;;5.03;1.10;;;;;;;;;;4977223;28;20038;-84
2023/03/05 12:22:48;;;;;;;2.55;1.13;;;;;;;;;;4983814;28;20034;-82
2023/03/05 12:25:24;;;;;;;4.03;1.20;;;;;;;;;;4977318;28;20474;-84
2023/03/05 12:27:50;;;;;;;2.50;1.00;;;;;;;;;;4993327;28;20026;-84
2023/03/05 12:30:34;;;;;;;2.65;1.15;;;;;;;;;;4977530;28;20034;-82
2023/03/05 12:33:04;;;;;;;1.75;1.00;;;;;;;;;;4994782;28;20030;-87
2023/03/05 12:35:35;;;;;;;1.45;0.90;;;;;;;;;;4977289;28;20499;-85
2023/03/05 12:38:03;;;;;;;1.83;0.90;;;;;;;;;;4978520;28;20397;-86
2023/03/05 12:40:31;;;;;;;1.95;0.93;;;;;;;;;;4976995;28;20026;-86
2023/03/05 12:43:00;;;;;;;1.20;0.85;;;;;;;;;;4976743;28;20042;-84
2023/03/05 12:45:33;;;;;;;2.45;1.17;;;;;;;;;;4994580;28;20068;-85
2023/03/05 12:47:59;;;;;;;1.98;1.17;;;;;;;;;;4994440;28;20569;-87
2023/03/05 12:50:27;;;;;;;1.42;0.73;;;;;;;;;;4994288;28;20046;-85
2023/03/05 12:53:03;;;;;;;2.17;1.10;;;;;;;;;;4994334;28;20053;-84
2023/03/05 12:55:33;;;;;;;3.13;0.98;;;;;;;;;;4979125;28;20026;-87
2023/03/05 12:58:09;;;;;;;4.25;1.00;;;;;;;;;;4977940;28;20053;-86
2023/03/05 13:01:17;;;;;;;2.70;0.90;;;;;;;;;;4976613;28;20066;-86
2023/03/05 13:03:47;;;;;;;6.20;1.05;;;;;;;;;;4967550;28;20057;-84
2023/03/05 13:06:33;;;;;;;2.75;0.88;;;;;;;;;;4985995;28;20029;-85
2023/03/05 13:09:05;;;;;;;1.92;0.70;;;;;;;;;;4986270;28;20022;-85
2023/03/05 13:11:33;;;;;;;1.23;0.73;;;;;;;;;;5000865;28;20022;-85
2023/03/05 13:13:59;;;;;;;1.90;0.93;;;;;;;;;;4983957;28;20121;-85
2023/03/05 13:16:28;;;;;;;1.35;0.80;;;;;;;;;;4966785;28;20034;-86
2023/03/05 13:18:56;;;;;;;1.52;0.80;;;;;;;;;;4983646;28;20089;-84
2023/03/05 13:21:31;;;;;;;2.38;0.77;;;;;;;;;;4983125;28;20030;-85
2023/03/05 13:23:59;;;;;;;0.73;0.73;;;;;;;;;;4973892;28;20026;-89
2023/03/05 13:26:39;;;;;;;2.60;1.08;;;;;;;;;;4983235;28;20442;-86
2023/03/05 13:29:13;;;;;;;1.20;0.90;;;;;;;;;;4966719;28;20397;-86
2023/03/05 13:31:42;;;;;;;4.80;1.00;;;;;;;;;;4983227;28;20018;-87
2023/03/05 13:34:23;;;;;;;6.80;0.88;;;;;;;;;;4982922;28;20022;-86
2023/03/05 13:37:13;;;;;;;2.30;1.00;;;;;;;;;;4999298;28;20088;-85
2023/03/05 13:39:49;;;;;;;7.25;1.05;;;;;;;;;;5000124;28;20030;-85
2023/03/05 13:42:18;;;;;;;2.78;0.90;;;;;;;;;;4982661;28;20460;-82
2023/03/05 13:44:53;;;;;;;4.00;0.82;;;;;;;;;;4982807;28;20022;-80
2023/03/05 13:47:20;;;;;;;2.70;0.90;;;;;;;;;;4982944;28;20026;-81
2023/03/05 13:49:46;;;;;;;2.30;0.90;;;;;;;;;;4982952;28;20034;-81
2023/03/05 13:52:22;;;;;;;1.70;0.70;;;;;;;;;;4982965;28;20149;-86
2023/03/05 13:54:48;;;;;;;1.27;0.75;;;;;;;;;;4982320;28;20396;-85
2023/03/05 13:57:35;;;;;;;1.85;0.90;;;;;;;;;;4998879;28;20036;-85
2023/03/05 14:00:06;;;;;;;1.90;1.15;;;;;;;;;;4982570;28;20022;-86
2023/03/05 14:02:31;;;;;;;1.52;1.00;;;;;;;;;;4999183;28;20034;-85
2023/03/05 14:04:57;;;;;;;1.98;0.95;;;;;;;;;;4982629;28;20504;-86
2023/03/05 14:07:39;;;;;;;0.70;0.70;;;;;;;;;;4966351;28;20034;-86
2023/03/05 14:10:28;;;;;;;0.75;0.60;;;;;;;;;;4982426;28;20037;-86
2023/03/05 14:12:54;;;;;;;1.67;1.00;;;;;;;;;;4982489;28;20029;-85
2023/03/05 14:15:28;;;;;;;1.67;0.93;;;;;;;;;;4966655;28;20030;-84
2023/03/05 14:18:12;;;;;;;0.70;0.60;;;;;;;;;;4979675;28;20030;-84
2023/03/05 14:20:38;;;;;;;0.85;0.70;;;;;;;;;;4997030;28;20093;-84
2023/03/05 14:23:25;;;;;;;0.60;0.60;;;;;;;;;;4979278;28;20043;-84
2023/03/05 14:25:52;;;;;;;1.65;0.80;;;;;;;;;;4996940;28;20068;-84
2023/03/05 14:28:17;;;;;;;1.08;0.85;;;;;;;;;;4979589;28;20499;-83
2023/03/05 14:30:47;;;;;;;0.95;0.70;;;;;;;;;;4997154;28;20026;-83
2023/03/05 14:33:13;;;;;;;2.28;0.90;;;;;;;;;;4979018;28;20026;-84
2023/03/05 14:35:39;;;;;;;0.60;0.50;;;;;;;;;;4996942;28;20034;-83
2023/03/05 14:38:07;;;;;;;6.30;0.82;;;;;;;;;;4996923;28;20037;-86
2023/03/05 14:40:34;;;;;;;1.73;0.90;;;;;;;;;;4979118;28;20419;-84
2023/03/05 14:43:05;;;;;;;2.55;0.68;;;;;;;;;;4979545;28;20027;-83
2023/03/05 14:45:30;;;;;;;1.52;0.75;;;;;;;;;;4978747;28;20027;-82
2023/03/05 14:47:58;;;;;;;0.93;0.70;;;;;;;;;;4997524;28;20469;-83
2023/03/05 14:50:35;;;;;;;1.65;0.63;;;;;;;;;;4998235;28;20105;-85
2023/03/05 14:53:05;;;;;;;1.33;0.88;;;;;;;;;;4978929;28;20050;-84
2023/03/05 14:55:31;;;;;;;0.73;0.55;;;;;;;;;;4996257;28;20125;-83